createdAt,value
2022-11-16T00:03:36.689Z,10.23
2022-11-16T00:08:45.205Z,9.32
2022-11-16T00:13:47.204Z,11.18
2022-11-16T00:18:49.174Z,10.45
2022-11-16T00:23:51.320Z,10.18
2022-11-16T00:28:54.309Z,11.07
2022-11-16T00:33:56.207Z,10.80
2022-11-16T00:38:58.096Z,10.93
2022-11-16T00:44:00.075Z,11.75
2022-11-16T00:49:02.439Z,12.20
2022-11-16T00:54:06.667Z,12.80
2022-11-16T00:59:10.433Z,12.43
2022-11-16T01:04:12.513Z,13.13
2022-11-16T01:09:14.493Z,13.52
2022-11-16T01:14:16.467Z,12.85
2022-11-16T01:19:18.756Z,11.55
2022-11-16T01:24:21.089Z,12.07
2022-11-16T01:29:26.577Z,12.75
2022-11-16T01:34:32.046Z,12.13
2022-11-16T01:39:40.682Z,13.20
2022-11-16T01:44:43.393Z,12.25
2022-11-16T01:49:53.968Z,12.60
2022-11-16T01:55:01.468Z,12.90
2022-11-16T02:00:12.766Z,12.55
2022-11-16T02:06:01.628Z,11.02
2022-11-16T02:11:27.072Z,10.77
2022-11-16T02:16:38.346Z,9.10
2022-11-16T02:22:29.614Z,9.50
2022-11-16T02:27:59.603Z,9.82
2022-11-16T02:33:13.458Z,10.05
2022-11-16T02:38:28.789Z,10.32
2022-11-16T02:43:46.957Z,9.70
2022-11-16T02:48:53.601Z,11.05
2022-11-16T02:54:12.795Z,10.07
2022-11-16T02:59:17.853Z,9.57
2022-11-16T03:04:30.398Z,11.00
2022-11-16T03:09:37.133Z,10.63
2022-11-16T03:14:44.305Z,10.13
2022-11-16T03:19:57.829Z,9.82
2022-11-16T03:24:59.877Z,11.00
2022-11-16T03:30:09.079Z,10.05
2022-11-16T03:35:20.275Z,9.88
2022-11-16T03:40:25.697Z,10.75
2022-11-16T03:45:30.138Z,9.80
2022-11-16T03:50:32.415Z,9.20
2022-11-16T03:55:36.512Z,10.07
2022-11-16T04:00:38.700Z,10.15
2022-11-16T04:06:03.191Z,9.05
2022-11-16T04:11:24.325Z,7.88
2022-11-16T04:16:45.694Z,9.35
2022-11-16T04:22:25.740Z,8.68
2022-11-16T04:27:48.826Z,9.60
2022-11-16T04:33:09.865Z,9.25
2022-11-16T04:38:12.887Z,9.40
2022-11-16T04:43:15.019Z,5.50
2022-11-16T04:48:20.127Z,4.63
2022-11-16T04:53:27.169Z,5.67
2022-11-16T04:58:58.244Z,5.57
2022-11-16T05:04:00.814Z,6.95
2022-11-16T05:09:02.978Z,8.32
2022-11-16T05:14:06.282Z,9.63
2022-11-16T05:19:26.902Z,10.98
2022-11-16T05:24:34.968Z,10.50
2022-11-16T05:29:39.138Z,9.10
2022-11-16T05:34:41.377Z,7.70
2022-11-16T05:39:44.607Z,8.15
2022-11-16T05:44:47.233Z,6.80
2022-11-16T05:49:51.431Z,5.40
2022-11-16T05:54:54.060Z,5.40
2022-11-16T05:59:56.055Z,4.18
2022-11-16T06:04:58.138Z,4.07
2022-11-16T06:10:00.358Z,4.28
2022-11-16T06:15:02.650Z,4.00
2022-11-16T06:20:05.421Z,3.30
2022-11-16T06:25:07.919Z,3.00
2022-11-16T06:30:14.517Z,2.70
2022-11-16T06:35:17.019Z,3.22
2022-11-16T06:40:19.761Z,2.72
2022-11-16T06:45:21.872Z,3.15
2022-11-16T06:50:28.504Z,3.03
2022-11-16T06:55:30.580Z,2.70
2022-11-16T07:00:32.875Z,2.38
2022-11-16T07:05:39.976Z,2.65
2022-11-16T07:10:45.571Z,2.95
2022-11-16T07:15:47.673Z,2.90
2022-11-16T07:20:49.700Z,3.00
2022-11-16T07:25:51.771Z,2.88
2022-11-16T07:31:07.576Z,2.63
2022-11-16T07:36:13.304Z,2.42
2022-11-16T07:41:17.853Z,3.90
2022-11-16T07:46:46.177Z,349.58
2022-11-16T07:51:50.089Z,3.42
2022-11-16T07:57:06.440Z,4.43
2022-11-16T08:02:10.796Z,3.53
2022-11-16T08:07:16.617Z,5.85
2022-11-16T08:12:26.187Z,4.53
2022-11-16T08:17:29.444Z,4.57
2022-11-16T08:22:33.077Z,3.95
2022-11-16T08:27:36.270Z,3.83
2022-11-16T08:32:38.704Z,4.30
2022-11-16T08:37:41.227Z,5.93
2022-11-16T08:42:44.435Z,4.93
2022-11-16T08:47:47.469Z,5.28
2022-11-16T08:52:49.633Z,4.55
2022-11-16T08:57:52.335Z,4.82
2022-11-16T09:02:54.432Z,5.10
2022-11-16T09:07:56.510Z,3.78
2022-11-16T09:12:58.402Z,3.90
2022-11-16T09:18:00.272Z,3.03
2022-11-16T09:23:02.195Z,3.47
2022-11-16T09:28:04.383Z,3.85
2022-11-16T09:33:06.274Z,3.28
2022-11-16T09:38:10.084Z,3.63
2022-11-16T09:43:18.025Z,2.90
2022-11-16T09:48:21.470Z,3.30
2022-11-16T09:53:34.095Z,2.58
2022-11-16T09:58:42.853Z,4.28
2022-11-16T10:03:50.384Z,2.65
2022-11-16T10:14:07.941Z,2.55
2022-11-16T10:19:15.346Z,4.53
2022-11-16T10:24:27.748Z,1.90
2022-11-16T10:29:38.795Z,1.98
2022-11-16T10:34:46.609Z,2.30
2022-11-16T10:39:51.421Z,2.38
2022-11-16T10:45:02.628Z,2.08
2022-11-16T10:50:38.169Z,2.53
2022-11-16T10:55:40.145Z,2.60
2022-11-16T11:00:47.233Z,3.88
2022-11-16T11:05:53.684Z,2.58
2022-11-16T11:11:41.286Z,2.08
2022-11-16T11:16:43.204Z,2.13
2022-11-16T11:21:45.326Z,3.95
2022-11-16T11:26:53.782Z,3.25
2022-11-16T11:32:04.362Z,2.90
2022-11-16T11:37:13.198Z,2.25
2022-11-16T11:42:15.239Z,3.35
2022-11-16T11:53:12.791Z,599.85
2022-11-16T11:58:19.423Z,601.35
2022-11-16T12:04:18.961Z,4.10
2022-11-16T12:09:45.909Z,3.40
2022-11-16T12:15:00.370Z,3.10
2022-11-16T12:20:16.340Z,2.30
2022-11-16T12:25:43.189Z,3.80
2022-11-16T12:31:23.822Z,2.92
2022-11-16T12:36:35.111Z,176.75
2022-11-16T12:42:02.929Z,592.10
2022-11-16T12:47:21.156Z,588.30
2022-11-16T12:52:41.204Z,607.97
2022-11-16T12:58:05.440Z,4.53
2022-11-16T13:03:20.673Z,343.42
2022-11-16T13:08:37.526Z,3.78
2022-11-16T13:13:41.937Z,4.63
2022-11-16T13:18:44.564Z,8.38
2022-11-16T13:24:12.707Z,4.60
2022-11-16T13:29:24.597Z,4.20
2022-11-16T13:34:32.995Z,3.00
2022-11-16T13:39:59.922Z,2.30
2022-11-16T13:45:16.624Z,2.90
2022-11-16T13:50:37.091Z,4.60
2022-11-16T13:55:43.915Z,3.28
2022-11-16T14:01:07.457Z,3.85
2022-11-16T14:06:24.617Z,3.90
2022-11-16T14:11:31.153Z,2.95
2022-11-16T14:16:43.083Z,330.23
2022-11-16T14:21:55.343Z,328.25
2022-11-16T14:27:17.051Z,611.17
2022-11-16T14:32:29.364Z,324.38
2022-11-16T14:37:40.499Z,599.97
2022-11-16T14:43:16.117Z,590.28
2022-11-16T14:48:21.729Z,599.42
2022-11-16T14:53:26.421Z,572.55
2022-11-16T14:58:28.864Z,592.95
2022-11-16T15:03:52.563Z,571.00
2022-11-16T15:09:04.964Z,554.88
2022-11-16T15:14:07.380Z,560.10
2022-11-16T15:19:12.631Z,537.55
2022-11-16T15:24:30.342Z,538.60
2022-11-16T15:29:33.687Z,542.88
2022-11-16T15:34:39.342Z,531.58
2022-11-16T15:39:41.949Z,518.30
2022-11-16T15:44:44.607Z,534.38
2022-11-16T15:49:49.814Z,544.42
2022-11-16T15:55:03.918Z,542.63
2022-11-16T16:00:06.264Z,515.75
2022-11-16T16:05:38.774Z,12.15
2022-11-16T16:10:40.732Z,3.92
2022-11-16T16:15:42.727Z,3.50
2022-11-16T16:20:48.586Z,2.83
2022-11-16T16:25:50.900Z,4.63
2022-11-16T16:30:52.844Z,525.33
2022-11-16T16:35:54.767Z,10.18
2022-11-16T16:41:02.587Z,539.55
2022-11-16T16:46:04.725Z,532.65
2022-11-16T16:51:06.834Z,509.58
2022-11-16T16:56:16.784Z,512.35
2022-11-16T17:01:18.760Z,515.28
2022-11-16T17:06:20.862Z,514.92
2022-11-16T17:11:23.182Z,511.50
2022-11-16T17:16:25.371Z,510.80
2022-11-16T17:21:27.443Z,496.85
2022-11-16T17:26:29.667Z,499.27
2022-11-16T17:31:31.600Z,531.90
2022-11-16T17:36:33.506Z,516.38
2022-11-16T17:41:35.457Z,525.58
2022-11-16T17:46:37.416Z,512.50
2022-11-16T17:51:39.457Z,530.42
2022-11-16T17:56:41.367Z,504.85
2022-11-16T18:01:43.337Z,516.33
2022-11-16T18:06:45.256Z,493.05
2022-11-16T18:11:47.261Z,490.05
2022-11-16T18:16:49.158Z,528.88
2022-11-16T18:21:51.093Z,505.50
2022-11-16T18:26:53.001Z,496.58
2022-11-16T18:31:54.918Z,491.58
2022-11-16T18:36:56.852Z,509.88
2022-11-16T18:42:01.138Z,488.85
2022-11-16T18:47:03.174Z,482.38
2022-11-16T18:52:05.109Z,479.75
2022-11-16T18:57:07.041Z,502.73
2022-11-16T19:02:11.748Z,497.67
2022-11-16T19:07:14.182Z,483.10
2022-11-16T19:12:16.106Z,482.83
2022-11-16T19:17:20.397Z,491.02
2022-11-16T19:22:22.335Z,483.67
2022-11-16T19:27:24.279Z,500.90
2022-11-16T19:32:26.284Z,478.17
2022-11-16T19:37:28.154Z,474.45
2022-11-16T19:42:30.116Z,481.40
2022-11-16T19:47:32.034Z,483.58
2022-11-16T19:52:34.027Z,486.13
2022-11-16T19:57:35.980Z,481.48
2022-11-16T20:02:38.752Z,496.08
2022-11-16T20:07:40.785Z,500.15
2022-11-16T20:12:43.542Z,492.48
2022-11-16T20:17:45.538Z,476.45
2022-11-16T20:22:48.791Z,489.48
2022-11-16T20:27:50.747Z,504.30
2022-11-16T20:32:52.703Z,472.70
2022-11-16T20:37:54.615Z,457.77
2022-11-16T20:42:59.169Z,488.85
2022-11-16T20:48:01.245Z,489.90
2022-11-16T20:53:03.271Z,474.63
2022-11-16T20:58:05.629Z,500.67
2022-11-16T21:03:08.066Z,502.95
2022-11-16T21:08:11.499Z,485.85
2022-11-16T21:13:34.606Z,482.50
2022-11-16T21:18:37.587Z,490.85
2022-11-16T21:23:43.156Z,480.38
2022-11-16T21:28:45.513Z,480.50
2022-11-16T21:33:48.185Z,496.60
2022-11-16T21:38:50.815Z,500.80
2022-11-16T21:43:53.055Z,486.83
2022-11-16T21:48:56.656Z,487.10
2022-11-16T21:53:58.973Z,482.92
2022-11-16T21:59:00.897Z,486.45
2022-11-16T22:04:21.335Z,502.45
2022-11-16T22:09:23.626Z,495.10
2022-11-16T22:14:25.536Z,491.15
2022-11-16T22:19:27.482Z,488.85
2022-11-16T22:24:29.403Z,481.13
2022-11-16T22:29:31.442Z,465.00
2022-11-16T22:34:33.388Z,480.75
2022-11-16T22:39:36.699Z,478.13
2022-11-16T22:44:38.579Z,487.83
2022-11-16T22:49:40.619Z,477.27
2022-11-16T22:54:42.706Z,480.25
2022-11-16T22:59:44.658Z,473.15
2022-11-16T23:04:46.596Z,470.65
2022-11-16T23:09:48.491Z,464.55
2022-11-16T23:15:09.167Z,481.88
2022-11-16T23:20:29.627Z,467.55
2022-11-16T23:25:51.120Z,464.23
2022-11-16T23:30:53.040Z,461.17
2022-11-16T23:35:54.905Z,464.48
2022-11-16T23:40:56.874Z,462.85
2022-11-16T23:45:58.855Z,469.27
2022-11-16T23:51:00.760Z,487.20
2022-11-16T23:56:05.988Z,471.92
